createdAt,value
2022-10-20T00:02:00.679Z,36.28
2022-10-20T00:04:47.581Z,38.13
2022-10-20T00:07:14.473Z,36.72
2022-10-20T00:09:41.335Z,34.08
2022-10-20T00:12:08.171Z,39.20
2022-10-20T00:14:36.214Z,36.65
2022-10-20T00:17:03.358Z,33.45
2022-10-20T00:19:30.236Z,37.13
2022-10-20T00:21:57.101Z,34.45
2022-10-20T00:24:25.256Z,35.42
2022-10-20T00:26:52.076Z,40.22
2022-10-20T00:31:50.734Z,36.33
2022-10-20T00:34:36.415Z,41.42
2022-10-20T00:37:03.259Z,38.22
2022-10-20T00:39:31.132Z,39.35
2022-10-20T00:41:57.949Z,41.53
2022-10-20T00:45:00.551Z,41.35
2022-10-20T00:50:23.401Z,39.55
2022-10-20T00:52:53.679Z,43.70
2022-10-20T00:55:32.414Z,46.88
2022-10-20T00:58:01.082Z,42.30
2022-10-20T01:00:28.372Z,39.55
2022-10-20T01:03:34.231Z,32.78
2022-10-20T01:06:01.090Z,38.05
2022-10-20T01:08:28.052Z,39.72
2022-10-20T01:11:01.262Z,40.08
2022-10-20T01:13:54.578Z,35.33
2022-10-20T01:16:45.594Z,37.20
2022-10-20T01:19:15.112Z,38.72
2022-10-20T01:21:51.188Z,36.50
2022-10-20T01:24:46.323Z,43.70
2022-10-20T01:27:31.443Z,45.80
2022-10-20T01:30:09.134Z,39.92
2022-10-20T01:33:02.893Z,36.45
2022-10-20T01:35:35.029Z,35.30
2022-10-20T01:38:31.478Z,39.35
2022-10-20T01:41:16.617Z,37.75
2022-10-20T01:43:47.256Z,38.38
2022-10-20T01:46:15.968Z,34.58
2022-10-20T01:48:43.773Z,32.47
2022-10-20T01:51:11.051Z,39.20
2022-10-20T01:53:38.187Z,34.53
2022-10-20T01:56:06.465Z,39.17
2022-10-20T01:58:39.006Z,43.58
2022-10-20T02:01:37.384Z,39.88
2022-10-20T02:04:08.061Z,38.28
2022-10-20T02:06:46.195Z,39.83
2022-10-20T02:09:41.882Z,35.92
2022-10-20T02:12:31.501Z,40.22
2022-10-20T02:15:00.860Z,41.85
2022-10-20T02:17:29.322Z,38.03
2022-10-20T02:19:57.388Z,35.28
2022-10-20T02:22:24.726Z,44.17
2022-10-20T02:25:13.508Z,40.55
2022-10-20T02:27:46.016Z,42.28
2022-10-20T02:30:16.114Z,43.55
2022-10-20T02:32:49.238Z,35.90
2022-10-20T02:35:21.980Z,36.47
2022-10-20T02:37:48.830Z,39.45
2022-10-20T02:40:16.015Z,36.85
2022-10-20T02:42:43.769Z,47.35
2022-10-20T02:45:11.097Z,42.65
2022-10-20T02:47:38.616Z,40.35
2022-10-20T02:50:07.313Z,41.88
2022-10-20T02:52:34.526Z,39.05
2022-10-20T02:55:01.549Z,42.70
2022-10-20T02:57:28.443Z,35.83
2022-10-20T02:59:55.283Z,39.75
2022-10-20T03:02:22.154Z,39.45
2022-10-20T03:05:27.147Z,41.13
2022-10-20T03:07:54.141Z,40.13
2022-10-20T03:10:21.744Z,41.67
2022-10-20T03:12:48.799Z,43.95
2022-10-20T03:15:15.834Z,45.22
2022-10-20T03:17:42.675Z,43.17
2022-10-20T03:20:09.964Z,37.17
2022-10-20T03:22:36.732Z,44.55
2022-10-20T03:25:05.288Z,43.90
2022-10-20T03:27:32.067Z,51.50
2022-10-20T03:29:58.917Z,45.97
2022-10-20T03:32:25.751Z,39.47
2022-10-20T03:34:52.808Z,37.22
2022-10-20T03:37:19.674Z,35.05
2022-10-20T03:39:46.468Z,44.05
2022-10-20T03:42:14.241Z,38.00
2022-10-20T03:44:45.107Z,36.53
2022-10-20T03:47:13.448Z,35.63
2022-10-20T03:49:40.831Z,44.88
2022-10-20T03:52:07.833Z,44.80
2022-10-20T03:54:36.375Z,44.53
2022-10-20T03:57:06.874Z,41.92
2022-10-20T03:59:35.033Z,45.97
2022-10-20T04:02:01.929Z,46.80
2022-10-20T04:04:29.108Z,48.72
2022-10-20T04:06:55.903Z,49.35
2022-10-20T04:09:22.721Z,53.55
2022-10-20T04:11:49.532Z,46.08
2022-10-20T04:14:18.664Z,46.72
2022-10-20T04:16:45.480Z,40.45
2022-10-20T04:19:12.251Z,39.70
2022-10-20T04:21:39.110Z,43.85
2022-10-20T04:24:08.246Z,47.10
2022-10-20T04:26:35.113Z,41.50
2022-10-20T04:29:02.689Z,40.30
2022-10-20T04:31:29.515Z,41.65
2022-10-20T04:33:56.473Z,45.85
2022-10-20T04:36:23.264Z,43.00
2022-10-20T04:38:50.085Z,40.95
2022-10-20T04:41:16.965Z,46.05
2022-10-20T04:43:50.591Z,41.30
2022-10-20T04:46:17.412Z,40.70
2022-10-20T04:48:44.563Z,41.00
2022-10-20T04:51:13.546Z,42.28
2022-10-20T04:53:42.641Z,39.80
2022-10-20T04:56:14.204Z,35.70
2022-10-20T04:58:41.062Z,38.67
2022-10-20T05:01:09.897Z,40.47
2022-10-20T05:03:55.763Z,35.05
2022-10-20T05:06:25.819Z,40.08
2022-10-20T05:08:55.044Z,35.40
2022-10-20T05:11:23.457Z,40.05
2022-10-20T05:13:50.702Z,29.48
2022-10-20T05:16:18.089Z,37.05
2022-10-20T05:18:45.871Z,40.03
2022-10-20T05:21:15.787Z,36.38
2022-10-20T05:23:43.720Z,32.33
2022-10-20T05:26:13.440Z,36.30
2022-10-20T05:28:44.329Z,40.55
2022-10-20T05:31:11.969Z,37.88
2022-10-20T05:33:43.575Z,40.17
2022-10-20T05:36:12.271Z,41.15
2022-10-20T05:38:40.861Z,43.47
2022-10-20T05:41:12.104Z,39.70
2022-10-20T05:43:41.587Z,35.67
2022-10-20T05:46:09.230Z,41.08
2022-10-20T05:48:40.681Z,41.63
2022-10-20T05:51:15.755Z,42.28
2022-10-20T05:54:04.200Z,50.53
2022-10-20T05:56:31.937Z,43.25
2022-10-20T05:58:59.199Z,48.67
2022-10-20T06:01:49.816Z,50.00
2022-10-20T06:04:23.709Z,41.50
2022-10-20T06:06:51.966Z,49.58
2022-10-20T06:09:20.406Z,48.80
2022-10-20T06:11:47.889Z,48.03
2022-10-20T06:14:35.724Z,45.50
2022-10-20T06:17:02.569Z,46.05
2022-10-20T06:19:29.458Z,42.67
2022-10-20T06:21:56.324Z,48.35
2022-10-20T06:24:24.364Z,43.55
2022-10-20T06:26:51.608Z,45.13
2022-10-20T06:29:19.368Z,40.78
2022-10-20T06:31:48.904Z,37.00
2022-10-20T06:34:18.713Z,36.53
2022-10-20T06:36:46.656Z,43.55
2022-10-20T06:39:19.548Z,37.97
2022-10-20T06:41:51.562Z,41.97
2022-10-20T06:45:17.809Z,37.97
2022-10-20T06:47:44.826Z,38.15
2022-10-20T06:50:11.662Z,44.05
2022-10-20T06:52:38.825Z,36.72
2022-10-20T06:55:06.400Z,41.45
2022-10-20T06:57:33.272Z,39.63
2022-10-20T07:00:00.161Z,36.95
2022-10-20T07:02:26.974Z,41.03
2022-10-20T07:04:53.985Z,39.35
2022-10-20T07:07:20.945Z,38.97
2022-10-20T07:09:47.811Z,43.72
2022-10-20T07:12:14.718Z,39.13
2022-10-20T07:14:43.819Z,43.90
2022-10-20T07:17:10.611Z,39.92
2022-10-20T07:19:37.765Z,36.50
2022-10-20T07:22:04.594Z,37.20
2022-10-20T07:24:32.536Z,35.13
2022-10-20T07:26:59.599Z,32.53
2022-10-20T07:29:26.639Z,37.38
2022-10-20T07:31:53.548Z,34.08
2022-10-20T07:34:26.246Z,36.60
2022-10-20T07:39:21.674Z,34.58
2022-10-20T07:41:48.778Z,35.55
2022-10-20T07:44:18.038Z,30.30
2022-10-20T07:46:45.721Z,35.58
2022-10-20T07:52:00.133Z,33.65
2022-10-20T07:54:29.106Z,34.90
2022-10-20T07:56:55.953Z,32.20
2022-10-20T07:59:22.801Z,32.17
2022-10-20T08:01:49.882Z,32.45
2022-10-20T08:04:18.001Z,31.08
2022-10-20T08:06:47.139Z,35.38
2022-10-20T08:09:13.911Z,31.63
2022-10-20T08:11:40.738Z,39.13
2022-10-20T08:14:45.491Z,31.30
2022-10-20T08:17:12.564Z,27.15
2022-10-20T08:22:20.202Z,30.40
2022-10-20T08:24:47.413Z,29.10
2022-10-20T08:27:14.275Z,32.08
2022-10-20T08:29:41.231Z,30.33
2022-10-20T08:32:08.330Z,30.98
2022-10-20T08:34:35.251Z,27.60
2022-10-20T08:37:02.162Z,27.75
2022-10-20T08:39:28.996Z,28.67
2022-10-20T08:42:12.885Z,28.95
2022-10-20T08:45:00.102Z,33.13
2022-10-20T08:47:33.445Z,28.75
2022-10-20T08:50:02.431Z,30.83
2022-10-20T08:52:29.298Z,28.17
2022-10-20T08:55:18.981Z,30.50
2022-10-20T08:57:48.287Z,27.38
2022-10-20T09:00:18.724Z,28.10
2022-10-20T09:03:10.771Z,28.92
2022-10-20T09:05:42.837Z,27.75
2022-10-20T09:08:09.762Z,26.42
2022-10-20T09:10:48.938Z,24.30
2022-10-20T09:13:53.459Z,28.33
2022-10-20T09:16:41.941Z,26.90
2022-10-20T09:19:21.458Z,26.60
2022-10-20T09:21:53.216Z,24.45
2022-10-20T09:24:22.456Z,25.35
2022-10-20T09:26:59.939Z,23.98
2022-10-20T09:29:38.843Z,25.60
2022-10-20T09:32:48.487Z,26.52
2022-10-20T09:35:18.803Z,27.20
2022-10-20T09:37:53.423Z,25.50
2022-10-20T09:40:20.781Z,23.33
2022-10-20T09:42:59.069Z,26.58
2022-10-20T09:45:31.469Z,24.88
2022-10-20T09:48:21.111Z,25.65
2022-10-20T09:50:51.902Z,23.25
2022-10-20T09:53:21.838Z,21.05
2022-10-20T09:55:50.340Z,21.95
2022-10-20T09:58:38.244Z,21.23
2022-10-20T10:01:16.694Z,20.08
2022-10-20T10:03:59.708Z,20.48
2022-10-20T10:06:38.636Z,18.10
2022-10-20T10:09:36.080Z,18.80
2022-10-20T10:12:19.059Z,18.30
2022-10-20T10:15:25.022Z,18.27
2022-10-20T10:17:52.314Z,18.42
2022-10-20T10:20:19.053Z,18.73
2022-10-20T10:22:45.918Z,18.60
2022-10-20T10:25:25.537Z,21.60
2022-10-20T10:28:00.388Z,18.17
2022-10-20T10:30:31.710Z,16.73
2022-10-20T10:32:58.926Z,18.88
2022-10-20T10:35:42.444Z,17.33
2022-10-20T10:38:14.201Z,18.15
2022-10-20T10:40:53.023Z,19.98
2022-10-20T10:43:50.474Z,19.33
2022-10-20T10:46:20.675Z,21.92
2022-10-20T10:48:57.329Z,20.10
2022-10-20T10:51:42.550Z,20.23
2022-10-20T10:54:30.366Z,20.17
2022-10-20T10:57:01.685Z,20.40
2022-10-20T10:59:33.332Z,17.95
2022-10-20T11:02:20.987Z,17.20
2022-10-20T11:05:32.697Z,17.23
2022-10-20T11:08:07.630Z,18.90
2022-10-20T11:10:34.412Z,16.77
2022-10-20T11:13:16.531Z,17.88
2022-10-20T11:15:55.627Z,18.20
2022-10-20T11:18:44.126Z,17.60
2022-10-20T11:21:31.546Z,17.52
2022-10-20T11:24:17.892Z,15.73
2022-10-20T11:26:52.101Z,20.27
2022-10-20T11:29:31.490Z,16.00
2022-10-20T11:32:14.675Z,14.68
2022-10-20T11:34:50.257Z,15.18
2022-10-20T11:37:23.538Z,16.90
2022-10-20T11:43:00.713Z,13.70
2022-10-20T11:45:45.413Z,14.40
2022-10-20T11:48:18.649Z,13.80
2022-10-20T11:51:13.357Z,13.90
2022-10-20T11:53:55.655Z,13.52
2022-10-20T11:56:50.614Z,13.77
2022-10-20T11:59:29.598Z,14.18
2022-10-20T12:02:35.380Z,13.75
2022-10-20T12:05:20.208Z,13.68
2022-10-20T12:08:28.241Z,13.38
2022-10-20T12:11:19.872Z,13.35
2022-10-20T12:14:14.778Z,12.40
2022-10-20T12:16:59.574Z,12.63
2022-10-20T12:19:30.492Z,11.40
2022-10-20T12:21:57.508Z,12.80
2022-10-20T12:24:52.092Z,12.35
2022-10-20T12:27:20.819Z,11.82
2022-10-20T12:29:51.233Z,13.18
2022-10-20T12:32:38.447Z,11.60
2022-10-20T12:35:11.722Z,11.25
2022-10-20T12:37:42.232Z,10.05
2022-10-20T12:40:11.686Z,11.73
2022-10-20T12:42:46.187Z,11.68
2022-10-20T12:45:16.270Z,11.65
2022-10-20T12:47:49.877Z,10.75
2022-10-20T12:50:36.874Z,11.18
2022-10-20T12:53:19.124Z,11.40
2022-10-20T12:56:10.323Z,12.82
2022-10-20T12:58:58.186Z,14.48
2022-10-20T13:01:25.411Z,13.63
2022-10-20T13:03:53.265Z,12.02
2022-10-20T13:06:23.179Z,11.82
2022-10-20T13:09:21.189Z,11.57
2022-10-20T13:11:57.667Z,12.32
2022-10-20T13:14:40.889Z,11.98
2022-10-20T13:17:16.079Z,10.48
2022-10-20T13:19:48.915Z,10.25
2022-10-20T13:22:39.273Z,11.35
2022-10-20T13:25:18.424Z,11.63
2022-10-20T13:27:47.770Z,11.65
2022-10-20T13:30:22.026Z,11.45
2022-10-20T13:33:11.618Z,11.93
2022-10-20T13:36:05.207Z,11.13
2022-10-20T13:38:38.020Z,9.25
2022-10-20T13:41:25.768Z,10.73
2022-10-20T13:44:31.358Z,8.63
2022-10-20T13:47:06.234Z,8.27
2022-10-20T13:49:59.910Z,7.07
2022-10-20T13:52:31.149Z,7.22
2022-10-20T13:54:59.848Z,7.38
2022-10-20T13:57:29.766Z,7.90
2022-10-20T13:59:57.788Z,7.80
2022-10-20T14:02:30.852Z,7.40
2022-10-20T14:05:12.900Z,7.65
2022-10-20T14:07:44.720Z,8.48
2022-10-20T14:10:32.050Z,7.22
2022-10-20T14:13:00.959Z,6.80
2022-10-20T14:15:35.924Z,7.35
2022-10-20T14:18:06.832Z,7.85
2022-10-20T14:20:39.210Z,8.02
2022-10-20T14:23:06.964Z,7.30
2022-10-20T14:25:33.993Z,6.68
2022-10-20T14:28:05.109Z,6.65
2022-10-20T14:33:14.267Z,6.85
2022-10-20T14:35:43.840Z,6.90
2022-10-20T14:38:31.760Z,6.13
2022-10-20T14:40:59.579Z,6.22
2022-10-20T14:44:08.918Z,6.75
2022-10-20T14:46:45.707Z,6.35
2022-10-20T14:49:36.091Z,6.70
2022-10-20T14:52:25.712Z,7.22
2022-10-20T14:54:52.812Z,6.95
2022-10-20T14:57:19.594Z,6.50
2022-10-20T15:00:04.354Z,6.60
2022-10-20T15:02:38.372Z,6.78
2022-10-20T15:05:26.256Z,6.35
2022-10-20T15:07:56.121Z,5.93
2022-10-20T15:10:25.759Z,6.65
2022-10-20T15:13:30.850Z,6.97
2022-10-20T15:15:59.452Z,6.90
2022-10-20T15:18:27.539Z,6.85
2022-10-20T15:20:56.350Z,7.15
2022-10-20T15:23:28.581Z,5.88
2022-10-20T15:26:05.651Z,7.55
2022-10-20T15:28:48.631Z,5.75
2022-10-20T15:31:23.027Z,6.40
2022-10-20T15:33:52.365Z,6.30
2022-10-20T15:36:28.947Z,6.82
2022-10-20T15:38:56.682Z,6.07
2022-10-20T15:41:30.065Z,5.95
2022-10-20T15:48:57.856Z,5.82
2022-10-20T15:51:29.017Z,7.25
2022-10-20T15:53:58.887Z,6.60
2022-10-20T15:56:25.905Z,6.38
2022-10-20T15:58:52.909Z,6.78
2022-10-20T16:01:21.892Z,6.70
2022-10-20T16:04:20.187Z,7.15
2022-10-20T16:06:47.252Z,6.65
2022-10-20T16:09:16.090Z,5.38
2022-10-20T16:11:44.215Z,7.75
2022-10-20T16:14:33.947Z,7.00
2022-10-20T16:17:00.825Z,7.57
2022-10-20T16:19:27.844Z,8.20
2022-10-20T16:21:54.717Z,8.15
2022-10-20T16:24:23.109Z,7.93
2022-10-20T16:26:49.995Z,8.40
2022-10-20T16:29:16.899Z,7.45
2022-10-20T16:31:43.751Z,7.60
2022-10-20T16:34:11.726Z,8.90
2022-10-20T16:36:38.980Z,7.95
2022-10-20T16:39:05.857Z,8.50
2022-10-20T16:41:33.108Z,7.53
2022-10-20T16:44:01.199Z,8.35
2022-10-20T16:46:28.308Z,7.95
2022-10-20T16:48:57.090Z,8.20
2022-10-20T16:51:23.983Z,8.73
2022-10-20T16:54:09.596Z,8.95
2022-10-20T16:56:36.429Z,6.85
2022-10-20T16:59:03.237Z,8.52
2022-10-20T17:01:30.221Z,8.57
2022-10-20T17:03:57.358Z,7.55
2022-10-20T17:06:25.747Z,9.02
2022-10-20T17:08:53.860Z,8.80
2022-10-20T17:11:23.625Z,9.18
2022-10-20T17:13:51.710Z,9.05
2022-10-20T17:16:24.819Z,8.75
2022-10-20T17:18:55.732Z,8.82
2022-10-20T17:21:22.620Z,9.45
2022-10-20T17:24:13.848Z,8.98
2022-10-20T17:26:41.490Z,10.05
2022-10-20T17:29:09.524Z,10.00
2022-10-20T17:31:37.902Z,9.52
2022-10-20T17:34:05.000Z,9.85
2022-10-20T17:36:32.400Z,10.73
2022-10-20T17:39:02.266Z,9.35
2022-10-20T17:41:29.549Z,10.23
2022-10-20T17:44:00.808Z,10.23
2022-10-20T17:46:28.404Z,10.73
2022-10-20T17:48:55.394Z,9.35
2022-10-20T17:51:26.870Z,10.05
2022-10-20T17:53:58.496Z,10.23
2022-10-20T17:56:28.498Z,10.25
2022-10-20T17:58:56.262Z,9.02
2022-10-20T18:01:27.093Z,10.88
2022-10-20T18:04:12.535Z,10.73
2022-10-20T18:06:40.265Z,11.80
2022-10-20T18:09:13.331Z,11.50
2022-10-20T18:11:44.288Z,11.25
2022-10-20T18:14:12.472Z,12.02
2022-10-20T18:16:40.685Z,13.45
2022-10-20T18:19:08.173Z,11.23
2022-10-20T18:21:35.015Z,11.07
2022-10-20T18:24:06.507Z,10.75
2022-10-20T18:26:35.297Z,10.98
2022-10-20T18:29:03.795Z,13.00
2022-10-20T18:31:32.299Z,12.07
2022-10-20T18:34:04.391Z,10.90
2022-10-20T18:36:36.236Z,10.73
2022-10-20T18:39:06.567Z,12.23
2022-10-20T18:41:39.216Z,11.32
2022-10-20T18:46:59.776Z,11.57
2022-10-20T18:49:26.953Z,11.98
2022-10-20T18:51:54.053Z,12.50
2022-10-20T18:54:23.216Z,12.07
2022-10-20T18:56:50.116Z,11.07
2022-10-20T18:59:17.881Z,13.23
2022-10-20T19:01:45.381Z,12.63
2022-10-20T19:04:13.501Z,11.88
2022-10-20T19:06:46.402Z,12.45
2022-10-20T19:09:19.299Z,11.05
2022-10-20T19:11:47.221Z,13.50
2022-10-20T19:14:15.093Z,12.02
2022-10-20T19:16:45.715Z,14.07
2022-10-20T19:21:53.883Z,15.73
2022-10-20T19:24:24.044Z,17.48
2022-10-20T19:27:02.007Z,15.32
2022-10-20T19:29:40.421Z,14.85
2022-10-20T19:32:07.353Z,15.30
2022-10-20T19:34:36.974Z,14.25
2022-10-20T19:37:04.415Z,14.18
2022-10-20T19:39:35.112Z,14.68
2022-10-20T19:42:03.804Z,12.80
2022-10-20T19:44:30.918Z,13.32
2022-10-20T19:46:58.295Z,13.77
2022-10-20T19:49:25.797Z,15.23
2022-10-20T19:51:53.957Z,13.25
2022-10-20T19:54:21.945Z,14.55
2022-10-20T19:56:48.893Z,15.82
2022-10-20T19:59:15.759Z,14.80
2022-10-20T20:01:42.748Z,14.45
2022-10-20T20:04:11.603Z,14.65
2022-10-20T20:06:38.621Z,15.30
2022-10-20T20:09:09.226Z,15.45
2022-10-20T20:11:37.700Z,15.35
2022-10-20T20:14:08.711Z,16.02
2022-10-20T20:16:35.784Z,15.13
2022-10-20T20:19:03.485Z,4.05
2022-10-20T20:21:30.776Z,13.55
2022-10-20T20:24:01.447Z,14.18
2022-10-20T20:26:36.946Z,13.85
2022-10-20T20:29:04.288Z,14.73
2022-10-20T20:31:31.193Z,15.52
2022-10-20T20:33:58.305Z,16.55
2022-10-20T20:36:27.124Z,19.85
2022-10-20T20:38:59.496Z,6.18
2022-10-20T20:41:30.339Z,19.30
2022-10-20T20:44:00.333Z,17.98
2022-10-20T20:46:31.033Z,17.53
2022-10-20T20:48:58.147Z,18.58
2022-10-20T20:51:28.970Z,16.90
2022-10-20T20:53:56.216Z,16.98
2022-10-20T20:56:23.362Z,16.17
2022-10-20T20:58:55.423Z,3.83
2022-10-20T21:01:24.799Z,16.38
2022-10-20T21:03:58.467Z,3.22
2022-10-20T21:09:01.663Z,16.27
2022-10-20T21:11:28.876Z,3.85
2022-10-20T21:13:59.343Z,15.38
2022-10-20T21:16:35.283Z,3.60
2022-10-20T21:19:04.543Z,15.98
2022-10-20T21:21:37.291Z,14.82
2022-10-20T21:24:24.300Z,17.23
2022-10-20T21:26:51.220Z,3.60
2022-10-20T21:29:18.347Z,15.52
2022-10-20T21:31:45.223Z,3.53
2022-10-20T21:34:13.549Z,14.18
2022-10-20T21:36:40.507Z,15.45
2022-10-20T21:39:11.480Z,15.98
2022-10-20T21:41:38.693Z,15.52
2022-10-20T21:44:07.446Z,16.65
2022-10-20T21:46:35.907Z,16.27
2022-10-20T21:49:13.596Z,16.23
2022-10-20T21:51:43.424Z,3.25
2022-10-20T21:54:18.480Z,15.23
2022-10-20T21:56:47.050Z,17.17
2022-10-20T21:59:18.870Z,3.40
2022-10-20T22:01:47.286Z,3.55
2022-10-20T22:04:16.250Z,3.40
2022-10-20T22:06:43.447Z,15.40
2022-10-20T22:09:12.028Z,17.17
2022-10-20T22:11:44.027Z,4.15
2022-10-20T22:14:13.131Z,3.00
2022-10-20T22:16:41.726Z,2.90
2022-10-20T22:19:14.219Z,15.25
2022-10-20T22:21:43.062Z,15.07
2022-10-20T22:24:10.661Z,3.70
2022-10-20T22:26:37.816Z,16.30
2022-10-20T22:29:08.845Z,16.55
2022-10-20T22:31:37.588Z,4.30
2022-10-20T22:34:05.125Z,15.70
2022-10-20T22:36:31.955Z,16.10
2022-10-20T22:38:58.876Z,18.30
2022-10-20T22:41:25.883Z,3.13
2022-10-20T22:43:53.780Z,3.78
2022-10-20T22:46:20.985Z,3.28
2022-10-20T22:48:47.881Z,18.17
2022-10-20T22:51:15.575Z,3.28
2022-10-20T22:53:47.536Z,3.67
2022-10-20T22:56:20.079Z,16.58
2022-10-20T22:58:47.653Z,3.22
2022-10-20T23:01:17.753Z,16.15
2022-10-20T23:03:47.628Z,18.75
2022-10-20T23:06:20.819Z,4.30
2022-10-20T23:08:50.097Z,4.68
2022-10-20T23:11:17.416Z,19.23
2022-10-20T23:13:47.881Z,6.55
2022-10-20T23:16:14.947Z,3.88
2022-10-20T23:18:42.163Z,4.72
2022-10-20T23:21:09.104Z,17.85
2022-10-20T23:23:38.032Z,4.63
2022-10-20T23:26:06.695Z,4.82
2022-10-20T23:28:35.759Z,3.47
2022-10-20T23:31:30.249Z,3.97
2022-10-20T23:34:17.253Z,4.18
2022-10-20T23:36:44.101Z,19.55
2022-10-20T23:39:10.961Z,3.78
2022-10-20T23:41:37.821Z,3.78
2022-10-20T23:44:04.964Z,18.10
2022-10-20T23:46:32.644Z,19.58
2022-10-20T23:48:59.836Z,4.50
2022-10-20T23:51:26.988Z,3.97
2022-10-20T23:53:55.920Z,20.10
2022-10-20T23:56:22.817Z,4.55
2022-10-20T23:58:49.699Z,3.72
